Time;durP1;ratioP1;P1;durP2;ratioP2;P2;SDS_P1;SDS_P2;PMS_P1;PMS_P2;Temp;Humidity;BMP_temperature;BMP_pressure;BME280_temperature;BME280_humidity;BME280_pressure;Samples;Min_cycle;Max_cycle;Signal;HPM_P1;HPM_P2
2022/08/01 00:02:14;;;;;;;24.08;15.60;;;18.20;94.80;;;;;;5036038;28;20184;-91
2022/08/01 00:04:39;;;;;;;22.92;15.95;;;18.10;94.70;;;;;;5036052;28;20207;-89
2022/08/01 00:07:05;;;;;;;23.90;15.95;;;18.20;94.70;;;;;;5035949;28;20168;-89
2022/08/01 00:09:30;;;;;;;18.73;14.25;;;18.20;94.70;;;;;;5054004;28;20247;-89
2022/08/01 00:11:56;;;;;;;22.52;12.93;;;18.10;94.60;;;;;;5035840;28;20569;-89
2022/08/01 00:14:21;;;;;;;17.42;13.38;;;18.10;94.60;;;;;;5053567;28;20326;-89
2022/08/01 00:16:47;;;;;;;19.13;13.88;;;18.20;94.50;;;;;;5053874;28;20168;-89
2022/08/01 00:19:13;;;;;;;18.60;14.23;;;18.10;94.50;;;;;;5053539;28;20666;-89
2022/08/01 00:21:38;;;;;;;16.65;13.90;;;18.20;94.50;;;;;;5035699;28;20175;-89
2022/08/01 00:24:04;;;;;;;18.65;14.75;;;18.20;94.50;;;;;;5053285;28;20557;-89
2022/08/01 00:26:30;;;;;;;17.70;13.88;;;18.20;94.50;;;;;;5053404;28;20168;-89
2022/08/01 00:28:55;;;;;;;15.50;12.98;;;18.20;94.40;;;;;;5053563;28;20168;-89
2022/08/01 00:31:21;;;;;;;18.90;13.95;;;18.20;94.40;;;;;;5035604;28;20179;-87
2022/08/01 00:33:46;;;;;;;23.13;13.88;;;18.20;94.40;;;;;;5035353;28;20669;-89
2022/08/01 00:36:12;;;;;;;21.65;15.10;;;18.20;94.40;;;;;;5053288;28;20200;-89
2022/08/01 00:38:37;;;;;;;22.63;14.88;;;18.20;94.40;;;;;;5053510;28;20176;-88
2022/08/01 00:41:03;;;;;;;25.73;15.52;;;18.20;94.40;;;;;;5053617;28;20601;-89
2022/08/01 00:43:29;;;;;;;27.08;15.60;;;18.20;94.40;;;;;;5053209;28;20227;-89
2022/08/01 00:45:54;;;;;;;24.83;15.60;;;18.20;94.40;;;;;;5053085;28;20191;-89
2022/08/01 00:48:20;;;;;;;21.63;16.02;;;18.20;94.40;;;;;;5053184;28;20171;-89
2022/08/01 00:50:46;;;;;;;24.52;16.17;;;18.10;94.40;;;;;;5053151;28;20172;-89
2022/08/01 00:53:11;;;;;;;19.38;16.83;;;18.10;94.40;;;;;;5035276;28;20172;-89
2022/08/01 00:55:37;;;;;;;27.90;18.08;;;18.10;94.40;;;;;;5053008;28;20220;-89
2022/08/01 00:58:03;;;;;;;22.98;16.50;;;18.20;94.40;;;;;;5035284;28;20182;-89
2022/08/01 01:00:28;;;;;;;22.98;18.10;;;18.10;94.50;;;;;;5036381;28;20175;-89
2022/08/01 01:02:54;;;;;;;28.75;19.52;;;18.10;94.50;;;;;;5035388;28;20313;-89
2022/08/01 01:05:20;;;;;;;25.83;19.80;;;18.10;94.50;;;;;;5035099;28;20203;-89
2022/08/01 01:07:54;;;;;;;29.20;20.40;;;18.10;94.60;;;;;;5052978;28;20205;-90
2022/08/01 01:10:52;;;;;;;30.73;21.10;;;18.10;94.60;;;;;;5035183;28;20578;-90
2022/08/01 01:13:30;;;;;;;25.60;19.55;;;18.00;94.60;;;;;;5035781;28;20164;-89
2022/08/01 01:16:03;;;;;;;21.17;18.13;;;18.10;94.60;;;;;;5052837;28;20192;-89
2022/08/01 01:18:39;;;;;;;24.77;18.90;;;18.10;94.60;;;;;;5052760;28;20164;-89
2022/08/01 01:21:17;;;;;;;21.23;17.83;;;18.00;94.60;;;;;;5035189;28;20584;-89
2022/08/01 01:23:53;;;;;;;25.15;17.80;;;18.10;94.60;;;;;;5052766;28;20214;-89
2022/08/01 01:26:56;;;;;;;26.77;17.10;;;18.00;94.60;;;;;;5035005;28;20168;-89
2022/08/01 01:29:41;;;;;;;20.20;15.57;;;18.00;94.60;;;;;;5034799;28;20176;-89
2022/08/01 01:32:18;;;;;;;26.27;16.58;;;18.00;94.60;;;;;;5053051;28;20156;-89
2022/08/01 01:34:47;;;;;;;20.13;14.35;;;18.00;94.60;;;;;;5052737;28;20353;-89
2022/08/01 01:37:17;;;;;;;22.40;14.88;;;18.00;94.60;;;;;;5034971;28;20662;-89
2022/08/01 01:39:44;;;;;;;19.65;15.05;;;18.00;94.60;;;;;;5035171;28;20233;-89
2022/08/01 01:42:10;;;;;;;19.42;14.82;;;18.00;94.60;;;;;;5052690;28;20172;-89
2022/08/01 01:44:37;;;;;;;19.20;14.82;;;18.00;94.60;;;;;;5034629;28;20203;-90
2022/08/01 01:47:04;;;;;;;20.13;14.23;;;18.00;94.60;;;;;;5052664;28;20247;-89
2022/08/01 01:49:31;;;;;;;16.98;12.57;;;18.00;94.60;;;;;;5052707;28;20179;-90
2022/08/01 01:51:58;;;;;;;17.13;11.38;;;18.00;94.60;;;;;;5052571;28;20182;-90
2022/08/01 01:54:33;;;;;;;13.85;10.80;;;18.00;94.60;;;;;;5034619;28;20207;-89
2022/08/01 01:57:01;;;;;;;21.38;10.77;;;18.00;94.50;;;;;;5051440;28;20167;-89
2022/08/01 01:59:31;;;;;;;18.48;9.75;;;18.00;94.50;;;;;;5034703;28;20642;-89
2022/08/01 02:02:00;;;;;;;12.18;8.18;;;18.00;94.50;;;;;;5034646;28;20199;-89
2022/08/01 02:04:27;;;;;;;10.65;9.07;;;18.00;94.50;;;;;;5035347;28;20303;-89
2022/08/01 02:06:55;;;;;;;15.40;9.60;;;18.00;94.40;;;;;;5038259;28;20183;-89
2022/08/01 02:09:23;;;;;;;13.57;9.80;;;18.00;94.40;;;;;;5038146;28;20700;-89
2022/08/01 02:11:50;;;;;;;21.05;10.80;;;18.00;94.40;;;;;;5055960;28;20210;-89
2022/08/01 02:14:18;;;;;;;11.27;10.18;;;18.00;94.40;;;;;;5055754;28;20208;-89
2022/08/01 02:16:47;;;;;;;16.73;9.70;;;18.00;94.40;;;;;;5055796;28;20172;-89
2022/08/01 02:19:13;;;;;;;15.10;9.38;;;18.00;94.40;;;;;;5037978;28;20553;-90
2022/08/01 02:22:00;;;;;;;9.55;8.35;;;18.00;94.40;;;;;;5055809;28;20184;-89
2022/08/01 02:24:36;;;;;;;13.20;8.57;;;18.00;94.40;;;;;;5037808;28;20207;-89
2022/08/01 02:27:07;;;;;;;15.27;7.85;;;17.90;94.40;;;;;;5055709;28;20155;-89
2022/08/01 02:30:01;;;;;;;15.63;7.10;;;17.90;94.40;;;;;;5055661;28;20153;-90
2022/08/01 02:32:34;;;;;;;11.60;6.70;;;17.90;94.50;;;;;;5055875;28;20179;-89
2022/08/01 02:35:03;;;;;;;12.70;5.78;;;17.80;94.50;;;;;;5055322;28;20208;-89
2022/08/01 02:37:33;;;;;;;9.45;6.30;;;17.90;94.50;;;;;;5055469;28;20750;-89
2022/08/01 02:39:59;;;;;;;10.02;6.18;;;17.80;94.60;;;;;;5055394;28;20176;-89
2022/08/01 02:42:27;;;;;;;12.88;5.65;;;17.80;94.60;;;;;;5037595;28;20265;-89
2022/08/01 02:44:54;;;;;;;11.20;5.63;;;17.80;94.60;;;;;;5037329;28;20211;-89
2022/08/01 02:47:22;;;;;;;9.77;5.20;;;17.80;94.50;;;;;;5037516;28;20176;-89
2022/08/01 02:49:50;;;;;;;8.90;5.15;;;17.90;94.50;;;;;;5037569;28;20207;-89
2022/08/01 02:52:17;;;;;;;11.35;5.28;;;17.90;94.50;;;;;;5037515;28;20182;-89
2022/08/01 02:54:48;;;;;;;8.00;4.95;;;17.90;94.50;;;;;;5037244;28;20238;-90
2022/08/01 02:57:15;;;;;;;6.90;4.35;;;17.90;94.50;;;;;;5037309;28;20172;-90
2022/08/01 02:59:44;;;;;;;9.15;4.80;;;17.90;94.40;;;;;;5037221;28;20184;-90
2022/08/01 03:02:10;;;;;;;10.60;4.25;;;17.90;94.40;;;;;;5055345;28;20213;-89
2022/08/01 03:04:38;;;;;;;7.93;4.22;;;17.90;94.30;;;;;;5055186;28;20677;-89
2022/08/01 03:07:06;;;;;;;10.88;4.43;;;17.90;94.30;;;;;;5054946;28;20180;-89
2022/08/01 03:09:36;;;;;;;10.90;4.93;;;17.80;94.20;;;;;;5037104;28;20179;-89
2022/08/01 03:12:06;;;;;;;7.10;4.68;;;17.90;94.20;;;;;;5036974;28;20176;-89
2022/08/01 03:14:35;;;;;;;7.55;4.93;;;17.90;94.20;;;;;;5037190;28;20668;-89
2022/08/01 03:17:01;;;;;;;8.30;4.95;;;17.80;94.20;;;;;;5053647;28;20172;-89
2022/08/01 03:19:30;;;;;;;7.03;5.38;;;17.80;94.20;;;;;;5036865;28;20228;-89
2022/08/01 03:21:58;;;;;;;11.05;5.78;;;17.70;94.20;;;;;;5037046;28;20171;-89
2022/08/01 03:24:25;;;;;;;10.50;5.75;;;17.70;94.20;;;;;;5054526;28;20200;-89
2022/08/01 03:26:51;;;;;;;11.88;6.05;;;17.80;94.30;;;;;;5036738;28;20201;-89
2022/08/01 03:29:29;;;;;;;10.18;5.85;;;17.80;94.30;;;;;;5037007;28;20178;-89
2022/08/01 03:31:55;;;;;;;9.38;5.85;;;17.70;94.30;;;;;;5037421;28;20164;-89
2022/08/01 03:34:21;;;;;;;11.60;5.88;;;17.80;94.40;;;;;;5036544;28;20234;-89
2022/08/01 03:37:13;;;;;;;6.70;5.15;;;17.70;94.40;;;;;;5036489;28;20207;-89
2022/08/01 03:40:19;;;;;;;7.70;5.00;;;17.80;94.50;;;;;;5036596;28;20176;-90
2022/08/01 03:42:48;;;;;;;5.70;4.72;;;17.70;94.60;;;;;;5023549;28;20209;-89
2022/08/01 03:45:27;;;;;;;7.97;4.22;;;17.70;94.60;;;;;;5036186;28;20469;-89
2022/08/01 03:48:03;;;;;;;8.13;3.65;;;17.70;94.60;;;;;;5036496;28;20199;-89
2022/08/01 03:50:30;;;;;;;5.88;4.00;;;17.70;94.60;;;;;;5054426;28;20537;-89
2022/08/01 03:52:59;;;;;;;8.27;3.60;;;17.70;94.50;;;;;;5036188;28;20172;-89
2022/08/01 03:55:26;;;;;;;10.85;3.92;;;17.70;94.60;;;;;;5053878;28;20290;-89
2022/08/01 03:57:52;;;;;;;5.25;3.55;;;17.60;94.60;;;;;;5036198;28;20605;-89
2022/08/01 04:00:20;;;;;;;7.57;3.90;;;17.70;94.70;;;;;;5036313;28;20275;-89
2022/08/01 04:02:49;;;;;;;5.57;3.70;;;17.70;94.70;;;;;;5036332;28;20184;-90
2022/08/01 04:05:16;;;;;;;4.68;3.78;;;17.70;94.70;;;;;;5053714;28;20207;-89
2022/08/01 04:07:46;;;;;;;6.38;3.28;;;17.70;94.80;;;;;;5035836;28;20179;-90
2022/08/01 04:10:12;;;;;;;8.13;3.22;;;17.70;94.80;;;;;;5035954;28;20214;-89
2022/08/01 04:12:38;;;;;;;7.82;3.50;;;17.70;94.90;;;;;;5035891;28;20176;-90
2022/08/01 04:15:04;;;;;;;8.10;3.58;;;17.70;94.90;;;;;;5053590;28;20222;-90
2022/08/01 04:17:30;;;;;;;5.57;2.88;;;17.70;94.90;;;;;;5035689;28;20179;-90
2022/08/01 04:19:56;;;;;;;6.38;2.85;;;17.80;95.00;;;;;;5036352;28;20172;-90
2022/08/01 04:22:21;;;;;;;8.55;3.15;;;17.70;94.90;;;;;;5035672;28;20321;-90
2022/08/01 04:24:49;;;;;;;7.10;3.90;;;17.80;94.90;;;;;;5035499;28;20207;-90
2022/08/01 04:27:28;;;;;;;5.85;3.72;;;17.80;95.00;;;;;;5035351;28;20244;-90
2022/08/01 04:29:57;;;;;;;7.18;4.20;;;17.80;95.00;;;;;;5035744;28;20164;-90
2022/08/01 04:32:25;;;;;;;10.07;4.93;;;17.80;94.90;;;;;;5035575;28;20661;-89
2022/08/01 04:34:53;;;;;;;8.45;5.57;;;17.70;94.90;;;;;;5035480;28;20216;-90
2022/08/01 04:37:19;;;;;;;10.13;5.55;;;17.70;94.90;;;;;;5035446;28;20179;-90
2022/08/01 04:39:47;;;;;;;6.72;5.22;;;17.70;94.90;;;;;;5035431;28;20189;-89
2022/08/01 04:42:15;;;;;;;10.43;5.63;;;17.70;94.80;;;;;;5035434;28;20233;-89
2022/08/01 04:44:41;;;;;;;12.05;6.00;;;17.60;94.80;;;;;;5035344;28;20215;-89
2022/08/01 04:47:08;;;;;;;8.70;4.55;;;17.70;94.70;;;;;;5035335;28;20182;-89
2022/08/01 04:49:34;;;;;;;10.93;4.88;;;17.70;94.70;;;;;;5035424;28;20270;-89
2022/08/01 04:52:00;;;;;;;16.75;4.53;;;17.60;94.60;;;;;;5035286;28;20191;-89
2022/08/01 04:54:32;;;;;;;9.68;3.90;;;17.60;94.60;;;;;;5035516;28;20199;-89
2022/08/01 04:56:59;;;;;;;13.82;4.22;;;17.60;94.60;;;;;;5035223;28;20179;-89
2022/08/01 04:59:41;;;;;;;9.15;3.67;;;17.60;94.50;;;;;;5052968;28;20172;-89
2022/08/01 05:02:15;;;;;;;13.75;3.88;;;17.60;94.50;;;;;;5035161;28;20168;-89
2022/08/01 05:04:41;;;;;;;6.45;3.70;;;17.60;94.50;;;;;;5052955;28;20200;-89
2022/08/01 05:07:07;;;;;;;9.73;3.78;;;17.60;94.40;;;;;;5053096;28;20172;-88
2022/08/01 05:09:33;;;;;;;9.38;4.60;;;17.60;94.40;;;;;;5035797;28;20634;-89
2022/08/01 05:12:01;;;;;;;9.35;4.50;;;17.60;94.40;;;;;;5035077;28;20586;-89
2022/08/01 05:14:27;;;;;;;11.45;4.60;;;17.70;94.40;;;;;;5052897;28;20195;-89
2022/08/01 05:16:53;;;;;;;12.77;4.90;;;17.60;94.30;;;;;;5035063;28;20211;-89
2022/08/01 05:19:19;;;;;;;12.15;4.90;;;17.60;94.20;;;;;;5035587;28;20226;-90
2022/08/01 05:21:45;;;;;;;13.85;4.47;;;17.60;94.20;;;;;;5035932;28;20180;-89
2022/08/01 05:24:10;;;;;;;15.95;4.60;;;17.60;94.20;;;;;;5034885;28;20203;-90
2022/08/01 05:26:36;;;;;;;12.38;4.70;;;17.60;94.00;;;;;;5034977;28;20220;-89
2022/08/01 05:29:02;;;;;;;10.65;3.75;;;17.50;93.90;;;;;;5053322;28;20196;-89
2022/08/01 05:31:28;;;;;;;12.65;3.85;;;17.50;93.70;;;;;;5034953;28;20171;-89
2022/08/01 05:33:54;;;;;;;13.18;4.25;;;17.50;93.60;;;;;;5052681;28;20186;-89
2022/08/01 05:36:19;;;;;;;18.17;4.28;;;17.40;93.50;;;;;;5035697;28;20176;-89
2022/08/01 05:38:45;;;;;;;13.57;4.35;;;17.40;93.60;;;;;;5034992;28;20176;-90
2022/08/01 05:41:11;;;;;;;13.80;4.30;;;17.50;93.60;;;;;;5038575;28;20737;-89
2022/08/01 05:43:36;;;;;;;18.33;4.63;;;17.50;93.40;;;;;;5038498;28;20183;-89
2022/08/01 05:46:02;;;;;;;18.75;4.53;;;17.50;93.40;;;;;;5038630;28;20204;-89
2022/08/01 05:48:28;;;;;;;11.07;3.80;;;17.40;93.30;;;;;;5038439;28;20203;-89
2022/08/01 05:50:54;;;;;;;18.33;3.95;;;17.50;93.30;;;;;;5038538;28;20588;-90
2022/08/01 05:53:20;;;;;;;16.80;4.80;;;17.50;93.20;;;;;;5038532;28;20225;-89
2022/08/01 05:55:45;;;;;;;11.48;4.20;;;17.50;93.20;;;;;;5056111;28;20233;-89
2022/08/01 05:58:11;;;;;;;15.55;4.75;;;17.50;93.20;;;;;;5038362;28;20257;-89
2022/08/01 06:00:36;;;;;;;17.73;4.20;;;17.50;93.20;;;;;;5038398;28;20176;-89
2022/08/01 06:03:02;;;;;;;11.07;4.03;;;17.50;93.10;;;;;;5038247;28;20172;-88
2022/08/01 06:05:28;;;;;;;12.43;3.50;;;17.40;93.10;;;;;;5038915;28;20243;-89
2022/08/01 06:07:53;;;;;;;11.98;4.07;;;17.50;93.10;;;;;;5038116;28;20331;-86
2022/08/01 06:10:19;;;;;;;12.15;3.53;;;17.50;93.00;;;;;;5038173;28;20182;-87
2022/08/01 06:12:45;;;;;;;15.57;4.15;;;17.30;92.70;;;;;;5038088;28;20172;-88
2022/08/01 06:15:11;;;;;;;12.98;5.13;;;17.30;92.60;;;;;;5038149;28;20192;-89
2022/08/01 06:17:36;;;;;;;13.38;4.68;;;17.20;92.60;;;;;;5037960;28;20213;-89
2022/08/01 06:20:03;;;;;;;12.20;4.43;;;17.30;92.50;;;;;;5037944;28;20203;-88
2022/08/01 06:22:29;;;;;;;16.15;5.60;;;17.30;92.40;;;;;;5038272;28;20210;-89
2022/08/01 06:24:55;;;;;;;20.27;5.28;;;17.30;92.30;;;;;;5038274;28;20211;-88
2022/08/01 06:27:20;;;;;;;23.55;6.30;;;17.20;92.20;;;;;;5038046;28;20172;-88
2022/08/01 06:29:46;;;;;;;24.58;6.03;;;17.30;92.30;;;;;;5055577;28;20218;-88
2022/08/01 06:32:12;;;;;;;18.95;5.50;;;17.20;92.00;;;;;;5037652;28;20531;-89
2022/08/01 06:34:37;;;;;;;24.52;6.03;;;17.20;91.80;;;;;;5037689;28;20265;-88
2022/08/01 06:37:03;;;;;;;27.83;6.25;;;17.20;91.70;;;;;;5038085;28;20187;-88
2022/08/01 06:39:28;;;;;;;28.33;7.38;;;17.20;91.70;;;;;;5037558;28;20172;-88
2022/08/01 06:41:54;;;;;;;28.98;7.15;;;17.20;91.70;;;;;;5037944;28;20244;-88
2022/08/01 06:44:19;;;;;;;23.13;6.65;;;17.20;91.80;;;;;;5037719;28;20261;-88
2022/08/01 06:46:45;;;;;;;27.15;6.32;;;17.20;91.80;;;;;;5037560;28;20172;-89
2022/08/01 06:49:11;;;;;;;25.75;6.43;;;17.20;91.70;;;;;;5055272;28;20195;-88
2022/08/01 06:51:36;;;;;;;32.15;7.45;;;17.20;91.50;;;;;;5037169;28;20259;-89
2022/08/01 06:54:02;;;;;;;27.17;6.50;;;17.20;91.20;;;;;;5055074;28;20199;-88
2022/08/01 06:56:28;;;;;;;22.75;6.38;;;17.20;91.10;;;;;;5038171;28;20556;-88
2022/08/01 06:58:56;;;;;;;30.10;7.00;;;17.20;91.00;;;;;;5037252;28;20194;-88
2022/08/01 07:01:21;;;;;;;27.05;6.60;;;17.20;90.80;;;;;;5055304;28;20164;-89
2022/08/01 07:03:47;;;;;;;23.67;5.85;;;17.20;90.70;;;;;;5037110;28;20190;-89
2022/08/01 07:06:14;;;;;;;24.35;5.63;;;17.20;90.30;;;;;;5037159;28;20200;-88
2022/08/01 07:08:40;;;;;;;28.02;5.95;;;17.20;90.20;;;;;;5037404;28;20264;-88
2022/08/01 07:11:06;;;;;;;18.88;5.30;;;17.20;90.00;;;;;;5037111;28;20259;-87
2022/08/01 07:13:32;;;;;;;24.05;4.28;;;17.30;89.90;;;;;;5036981;28;20171;-88
2022/08/01 07:15:58;;;;;;;21.00;3.88;;;17.30;89.50;;;;;;5036984;28;20192;-87
2022/08/01 07:18:23;;;;;;;18.48;4.88;;;17.20;88.90;;;;;;5036894;28;20227;-88
2022/08/01 07:20:49;;;;;;;12.45;3.38;;;17.20;87.70;;;;;;5036818;28;20187;-88
2022/08/01 07:23:15;;;;;;;17.80;3.28;;;17.20;85.90;;;;;;5036849;28;20183;-88
2022/08/01 07:25:41;;;;;;;18.05;3.42;;;17.20;84.80;;;;;;5036618;28;20250;-88
2022/08/01 07:28:06;;;;;;;14.23;3.25;;;17.30;84.70;;;;;;5036695;28;20176;-88
2022/08/01 07:30:32;;;;;;;16.02;3.70;;;17.40;84.60;;;;;;5036677;28;20179;-89
2022/08/01 07:32:57;;;;;;;21.80;3.88;;;17.40;84.50;;;;;;5036637;28;20172;-88
2022/08/01 07:35:23;;;;;;;18.83;4.00;;;17.40;84.00;;;;;;5054372;28;20211;-88
2022/08/01 07:37:48;;;;;;;23.00;5.68;;;17.50;84.60;;;;;;5037463;28;20172;-88
2022/08/01 07:40:15;;;;;;;19.77;4.43;;;17.70;85.50;;;;;;5054270;28;20183;-88
2022/08/01 07:42:43;;;;;;;24.40;5.07;;;17.80;86.10;;;;;;5054290;28;20176;-88
2022/08/01 07:45:10;;;;;;;16.23;4.22;;;17.90;85.50;;;;;;5037550;28;20633;-88
2022/08/01 07:47:35;;;;;;;20.92;4.50;;;18.00;84.60;;;;;;5036447;28;20262;-88
2022/08/01 07:50:03;;;;;;;24.80;4.75;;;18.00;84.50;;;;;;5054177;28;20203;-88
2022/08/01 07:52:30;;;;;;;19.17;4.72;;;18.10;84.90;;;;;;5036328;28;20176;-88
2022/08/01 07:54:56;;;;;;;23.17;5.15;;;18.20;85.60;;;;;;5036498;28;20256;-88
2022/08/01 07:57:22;;;;;;;20.98;4.18;;;18.30;86.10;;;;;;5036127;28;20553;-88
2022/08/01 07:59:48;;;;;;;18.58;5.07;;;18.30;85.80;;;;;;5036167;28;20534;-87
2022/08/01 08:02:14;;;;;;;23.65;5.25;;;18.20;85.20;;;;;;5036392;28;20380;-88
2022/08/01 08:04:39;;;;;;;25.10;4.65;;;18.30;85.70;;;;;;5035925;28;20417;-88
2022/08/01 08:07:05;;;;;;;22.70;4.97;;;18.10;85.10;;;;;;5036885;28;20179;-88
2022/08/01 08:09:30;;;;;;;15.73;4.07;;;18.20;85.20;;;;;;5036361;28;20263;-88
2022/08/01 08:11:56;;;;;;;18.08;4.45;;;18.20;84.10;;;;;;5054325;28;20190;-88
2022/08/01 08:14:23;;;;;;;21.08;4.15;;;18.10;84.10;;;;;;5035837;28;20263;-88
2022/08/01 08:16:49;;;;;;;15.25;4.40;;;18.20;83.80;;;;;;5035903;28;20262;-88
2022/08/01 08:19:15;;;;;;;15.30;4.45;;;18.10;84.00;;;;;;5035936;28;20208;-88
2022/08/01 08:21:40;;;;;;;16.50;4.43;;;18.00;84.10;;;;;;5035731;28;20175;-87
2022/08/01 08:24:20;;;;;;;18.75;4.70;;;17.90;84.40;;;;;;5035644;28;20196;-87
2022/08/01 08:26:47;;;;;;;19.48;4.78;;;18.00;85.10;;;;;;5053800;28;20155;-88
2022/08/01 08:29:13;;;;;;;19.77;5.03;;;17.90;85.30;;;;;;5053553;28;20176;-88
2022/08/01 08:31:39;;;;;;;21.42;5.80;;;17.90;85.20;;;;;;5053397;28;20180;-89
2022/08/01 08:34:05;;;;;;;21.20;5.32;;;18.00;85.70;;;;;;5053282;28;20670;-89
2022/08/01 08:36:31;;;;;;;21.15;4.82;;;18.30;85.80;;;;;;5053336;28;20552;-89
2022/08/01 08:38:56;;;;;;;23.73;6.32;;;18.30;84.80;;;;;;5035534;28;20179;-87
2022/08/01 08:41:22;;;;;;;21.92;5.43;;;18.40;84.50;;;;;;5036738;28;20183;-89
2022/08/01 08:43:48;;;;;;;21.73;5.28;;;18.30;83.50;;;;;;5036592;28;20217;-89
2022/08/01 08:46:15;;;;;;;28.63;6.80;;;18.30;84.20;;;;;;5036763;28;20334;-90
2022/08/01 08:48:42;;;;;;;16.30;5.60;;;18.20;83.30;;;;;;5036833;28;20286;-90
2022/08/01 08:51:10;;;;;;;11.85;4.13;;;18.20;83.70;;;;;;5054252;28;20217;-90
2022/08/01 08:53:38;;;;;;;17.67;4.68;;;18.30;82.60;;;;;;5035710;28;20172;-86
2022/08/01 08:56:06;;;;;;;16.95;4.35;;;18.70;82.70;;;;;;5035330;28;20192;-86
2022/08/01 08:58:37;;;;;;;15.77;4.10;;;18.70;81.20;;;;;;5053442;28;20178;-86
2022/08/01 09:01:05;;;;;;;19.48;4.20;;;18.80;80.00;;;;;;5035381;28;20199;-87
2022/08/01 09:03:32;;;;;;;19.20;4.15;;;18.70;79.20;;;;;;5035265;28;20206;-87
2022/08/01 09:05:58;;;;;;;20.40;4.22;;;18.80;79.50;;;;;;5035169;28;20265;-86
2022/08/01 09:08:24;;;;;;;16.42;4.20;;;18.80;79.30;;;;;;5035809;28;20172;-85
2022/08/01 09:10:49;;;;;;;19.00;3.97;;;19.10;79.40;;;;;;5054043;28;20164;-86
2022/08/01 09:13:15;;;;;;;23.65;3.60;;;19.30;79.20;;;;;;5036501;28;20232;-86
2022/08/01 09:15:53;;;;;;;15.45;3.97;;;19.10;77.90;;;;;;5057684;28;20196;-86
2022/08/01 09:18:39;;;;;;;15.30;3.50;;;19.10;77.80;;;;;;5039481;28;20172;-87
2022/08/01 09:21:14;;;;;;;19.42;4.40;;;19.20;76.70;;;;;;5057915;28;20250;-87
2022/08/01 09:23:49;;;;;;;14.35;2.88;;;19.40;77.00;;;;;;5057655;28;20179;-87
2022/08/01 09:26:18;;;;;;;8.50;2.60;;;19.60;75.20;;;;;;5057837;28;20677;-86
2022/08/01 09:28:45;;;;;;;18.55;3.60;;;19.40;74.20;;;;;;5039388;28;20298;-86
2022/08/01 09:31:14;;;;;;;14.23;3.40;;;19.50;75.20;;;;;;5056845;28;20286;-86
2022/08/01 09:33:48;;;;;;;14.02;3.70;;;19.70;73.60;;;;;;5038819;28;20549;-86
2022/08/01 09:36:14;;;;;;;17.38;3.60;;;19.80;75.80;;;;;;5038941;28;20287;-87
2022/08/01 09:38:40;;;;;;;18.65;3.08;;;20.10;75.60;;;;;;5039007;28;20204;-86
2022/08/01 09:41:07;;;;;;;14.75;3.58;;;20.30;74.90;;;;;;5058575;28;20218;-85
2022/08/01 09:43:32;;;;;;;15.55;2.97;;;20.10;74.20;;;;;;5039783;28;20234;-86
2022/08/01 09:46:00;;;;;;;19.27;4.07;;;19.90;72.50;;;;;;5039034;28;20617;-85
2022/08/01 09:48:27;;;;;;;18.65;3.75;;;19.90;74.90;;;;;;5039193;28;20172;-85
2022/08/01 09:50:53;;;;;;;13.05;3.35;;;20.10;73.50;;;;;;5039838;28;20229;-86
2022/08/01 09:53:19;;;;;;;20.95;3.33;;;20.10;71.90;;;;;;5039702;28;20591;-86
2022/08/01 09:55:45;;;;;;;14.93;3.13;;;20.00;72.20;;;;;;5039428;28;20579;-86
2022/08/01 09:58:11;;;;;;;11.27;2.53;;;19.70;72.90;;;;;;5056767;28;20169;-86
2022/08/01 10:00:38;;;;;;;11.02;2.85;;;19.70;74.10;;;;;;5056795;28;20172;-87
2022/08/01 10:03:24;;;;;;;12.25;2.83;;;20.20;72.50;;;;;;5039232;28;20668;-88
2022/08/01 10:05:51;;;;;;;12.10;3.13;;;20.70;72.40;;;;;;5056886;28;20212;-87
2022/08/01 10:08:18;;;;;;;14.25;2.65;;;20.90;68.90;;;;;;5038885;28;20195;-88
2022/08/01 10:11:11;;;;;;;16.10;3.22;;;20.60;66.60;;;;;;5038886;28;20172;-88
2022/08/01 10:13:37;;;;;;;17.40;2.88;;;20.90;69.20;;;;;;5038367;28;20516;-87
2022/08/01 10:16:05;;;;;;;8.88;2.92;;;20.30;69.40;;;;;;5056161;28;20192;-87
2022/08/01 10:18:32;;;;;;;14.80;3.40;;;20.60;69.40;;;;;;5038490;28;20184;-88
2022/08/01 10:21:03;;;;;;;18.42;3.38;;;20.80;68.70;;;;;;5056878;28;20263;-89
2022/08/01 10:23:34;;;;;;;9.15;2.50;;;20.70;68.00;;;;;;5040959;28;20168;-88
2022/08/01 10:26:01;;;;;;;15.00;3.00;;;20.80;66.80;;;;;;5042327;28;20215;-89
2022/08/01 10:28:30;;;;;;;15.40;3.45;;;20.50;69.00;;;;;;5059327;28;20175;-88
2022/08/01 10:30:57;;;;;;;10.27;2.70;;;20.70;68.40;;;;;;5039198;28;20172;-89
2022/08/01 10:33:24;;;;;;;12.60;2.63;;;20.80;67.70;;;;;;5040439;28;20172;-90
2022/08/01 10:35:51;;;;;;;13.75;3.03;;;21.10;68.10;;;;;;5058112;28;20215;-88
2022/08/01 10:38:17;;;;;;;12.43;2.78;;;21.50;66.20;;;;;;5040063;28;20257;-91
2022/08/01 10:40:43;;;;;;;12.88;3.15;;;21.30;65.10;;;;;;5039065;28;20180;-90
2022/08/01 10:43:16;;;;;;;13.80;2.63;;;21.20;63.10;;;;;;5037911;28;20176;-88
2022/08/01 10:45:43;;;;;;;12.15;2.53;;;21.30;63.90;;;;;;5037824;28;20215;-89
2022/08/01 10:48:24;;;;;;;10.68;2.67;;;21.50;63.10;;;;;;5037523;28;20567;-89
2022/08/01 10:50:52;;;;;;;13.88;2.67;;;21.70;65.60;;;;;;5037704;28;20167;-89
2022/08/01 10:53:23;;;;;;;15.68;2.75;;;21.80;62.10;;;;;;5037448;28;20645;-89
2022/08/01 10:55:56;;;;;;;11.52;2.80;;;21.80;61.70;;;;;;5037889;28;20271;-90
2022/08/01 10:58:36;;;;;;;13.63;3.17;;;21.70;62.70;;;;;;5055514;28;20161;-89
2022/08/01 11:01:25;;;;;;;17.80;2.95;;;21.80;63.90;;;;;;5038142;28;20164;-89
2022/08/01 11:04:04;;;;;;;10.02;2.00;;;22.00;61.40;;;;;;5037180;28;20665;-89
2022/08/01 11:06:32;;;;;;;10.70;2.33;;;21.70;60.60;;;;;;5038042;28;20168;-90
2022/08/01 11:09:03;;;;;;;10.70;2.80;;;21.90;60.80;;;;;;5037085;28;20168;-89
2022/08/01 11:11:29;;;;;;;11.13;2.67;;;21.80;61.60;;;;;;5037143;28;20172;-89
2022/08/01 11:13:58;;;;;;;11.43;2.55;;;20.90;61.70;;;;;;5055319;28;20190;-89
2022/08/01 11:16:36;;;;;;;8.95;2.75;;;21.30;61.70;;;;;;5055107;28;20290;-89
2022/08/01 11:19:04;;;;;;;13.55;2.85;;;21.80;61.00;;;;;;5055430;28;20156;-89
2022/08/01 11:22:05;;;;;;;9.50;2.75;;;22.10;60.20;;;;;;5036886;28;20172;-90
2022/08/01 11:24:50;;;;;;;15.90;2.95;;;22.00;59.50;;;;;;4973960;28;20272;-89
2022/08/01 11:27:32;;;;;;;10.35;2.65;;;21.60;60.30;;;;;;5033086;28;20222;-89
2022/08/01 11:30:09;;;;;;;9.10;2.83;;;22.00;62.20;;;;;;5037732;28;20168;-89
2022/08/01 11:32:55;;;;;;;13.23;2.67;;;22.40;59.00;;;;;;5054534;28;20172;-90
2022/08/01 11:35:24;;;;;;;13.50;3.25;;;21.40;61.50;;;;;;5036473;28;20242;-89
2022/08/01 11:37:55;;;;;;;8.75;2.38;;;21.70;61.40;;;;;;5053434;28;20649;-89
2022/08/01 11:40:22;;;;;;;11.82;2.50;;;21.90;59.50;;;;;;5037018;28;20630;-89
2022/08/01 11:42:49;;;;;;;9.25;2.05;;;21.90;60.30;;;;;;5036543;28;20174;-89
2022/08/01 11:45:15;;;;;;;12.43;2.47;;;22.20;58.80;;;;;;5054180;28;20211;-89
2022/08/01 11:47:51;;;;;;;8.15;2.03;;;21.70;59.10;;;;;;5036506;28;20206;-89
2022/08/01 11:50:37;;;;;;;15.02;2.50;;;21.40;60.60;;;;;;5036648;28;20199;-89
2022/08/01 11:53:07;;;;;;;7.32;1.88;;;21.50;60.40;;;;;;5036486;28;20545;-90
2022/08/01 11:55:34;;;;;;;10.65;2.13;;;21.80;59.30;;;;;;5036256;28;20204;-89
2022/08/01 11:58:05;;;;;;;13.48;3.42;;;21.90;59.40;;;;;;5036315;28;20680;-89
2022/08/01 12:00:31;;;;;;;11.18;2.53;;;21.80;58.60;;;;;;5036485;28;20184;-89
2022/08/01 12:03:05;;;;;;;11.02;2.63;;;21.80;59.30;;;;;;5053992;28;20175;-89
2022/08/01 12:05:33;;;;;;;13.10;2.72;;;21.80;55.60;;;;;;5053894;28;20216;-89
2022/08/01 12:08:00;;;;;;;9.05;2.25;;;22.00;57.40;;;;;;5036511;28;20178;-89
2022/08/01 12:10:32;;;;;;;10.20;2.50;;;22.10;56.40;;;;;;5036297;28;20195;-88
2022/08/01 12:13:03;;;;;;;13.25;2.30;;;21.20;58.50;;;;;;5053952;28;20156;-88
2022/08/01 12:15:37;;;;;;;10.57;2.00;;;21.40;59.40;;;;;;5036134;28;20203;-88
2022/08/01 12:18:05;;;;;;;9.98;2.88;;;21.20;57.80;;;;;;5053696;28;20187;-89
2022/08/01 12:20:32;;;;;;;12.43;2.15;;;21.50;56.90;;;;;;5035886;28;20184;-89
2022/08/01 12:23:01;;;;;;;8.40;2.10;;;21.80;58.10;;;;;;5036528;28;20183;-89
2022/08/01 12:25:26;;;;;;;12.13;2.28;;;22.20;58.30;;;;;;5035827;28;20294;-89
2022/08/01 12:27:52;;;;;;;8.63;2.30;;;22.00;55.50;;;;;;5035694;28;20245;-88
2022/08/01 12:30:22;;;;;;;11.15;2.58;;;21.20;57.10;;;;;;5035621;28;20172;-89
2022/08/01 12:32:48;;;;;;;12.18;2.50;;;22.00;56.80;;;;;;5035610;28;20168;-89
2022/08/01 12:35:22;;;;;;;7.95;1.90;;;22.10;56.90;;;;;;5035477;28;20209;-89
2022/08/01 12:37:50;;;;;;;11.10;2.00;;;21.70;55.00;;;;;;5053434;28;20191;-89
2022/08/01 12:40:22;;;;;;;8.43;2.42;;;21.60;57.50;;;;;;5035574;28;20176;-89
2022/08/01 12:42:53;;;;;;;9.35;1.92;;;21.70;57.30;;;;;;5036184;28;20172;-88
2022/08/01 12:45:24;;;;;;;7.55;1.92;;;22.00;56.00;;;;;;5035411;28;20208;-88
2022/08/01 12:47:52;;;;;;;9.85;1.95;;;21.50;56.50;;;;;;5053129;28;20149;-88